sensor_id;sensor_type;location;lat;lon;timestamp;pressure;altitude;pressure_sealevel;temperature;humidity
9855;BME280;4966;48.112;9.282;2022-12-07T00:01:39;94637.16;;;4.21;79.03
9855;BME280;4966;48.112;9.282;2022-12-07T00:04:07;94634.75;;;4.20;78.54
9855;BME280;4966;48.112;9.282;2022-12-07T00:06:38;94640.41;;;4.04;79.35
9855;BME280;4966;48.112;9.282;2022-12-07T00:09:04;94635.38;;;4.17;79.05
9855;BME280;4966;48.112;9.282;2022-12-07T00:11:30;94632.97;;;4.29;77.87
9855;BME280;4966;48.112;9.282;2022-12-07T00:13:57;94634.53;;;4.16;78.56
9855;BME280;4966;48.112;9.282;2022-12-07T00:16:25;94629.66;;;4.32;78.11
9855;BME280;4966;48.112;9.282;2022-12-07T00:18:51;94634.88;;;4.29;78.19
9855;BME280;4966;48.112;9.282;2022-12-07T00:21:21;94625.88;;;4.33;76.80
9855;BME280;4966;48.112;9.282;2022-12-07T00:23:48;94623.56;;;4.40;76.90
9855;BME280;4966;48.112;9.282;2022-12-07T00:26:19;94629.38;;;4.20;77.71
9855;BME280;4966;48.112;9.282;2022-12-07T00:28:49;94620.81;;;4.45;76.63
9855;BME280;4966;48.112;9.282;2022-12-07T00:31:16;94620.00;;;4.31;76.80
9855;BME280;4966;48.112;9.282;2022-12-07T00:33:42;94612.22;;;4.16;77.92
9855;BME280;4966;48.112;9.282;2022-12-07T00:36:11;94601.25;;;4.12;78.23
9855;BME280;4966;48.112;9.282;2022-12-07T00:38:38;94613.41;;;4.10;78.38
9855;BME280;4966;48.112;9.282;2022-12-07T00:41:27;94606.94;;;4.24;78.24
9855;BME280;4966;48.112;9.282;2022-12-07T00:43:52;94611.44;;;4.29;77.21
9855;BME280;4966;48.112;9.282;2022-12-07T00:46:19;94617.00;;;4.33;77.04
9855;BME280;4966;48.112;9.282;2022-12-07T00:48:45;94617.50;;;4.35;76.84
9855;BME280;4966;48.112;9.282;2022-12-07T00:51:12;94604.53;;;4.51;76.13
9855;BME280;4966;48.112;9.282;2022-12-07T00:53:37;94606.03;;;4.29;76.98
9855;BME280;4966;48.112;9.282;2022-12-07T00:56:13;94600.03;;;4.18;77.69
9855;BME280;4966;48.112;9.282;2022-12-07T00:58:38;94607.53;;;4.35;77.57
9855;BME280;4966;48.112;9.282;2022-12-07T01:01:05;94602.63;;;4.37;77.08
9855;BME280;4966;48.112;9.282;2022-12-07T01:03:31;94606.94;;;4.38;77.69
9855;BME280;4966;48.112;9.282;2022-12-07T01:05:57;94601.84;;;4.37;77.46
9855;BME280;4966;48.112;9.282;2022-12-07T01:08:24;94607.34;;;4.32;78.08
9855;BME280;4966;48.112;9.282;2022-12-07T01:11:00;94610.72;;;4.23;78.40
9855;BME280;4966;48.112;9.282;2022-12-07T01:13:26;94607.13;;;4.42;77.91
9855;BME280;4966;48.112;9.282;2022-12-07T01:15:56;94611.22;;;4.53;77.18
9855;BME280;4966;48.112;9.282;2022-12-07T01:18:23;94606.28;;;4.69;75.93
9855;BME280;4966;48.112;9.282;2022-12-07T01:21:04;94611.78;;;4.50;76.90
9855;BME280;4966;48.112;9.282;2022-12-07T01:23:30;94615.00;;;4.52;76.64
9855;BME280;4966;48.112;9.282;2022-12-07T01:26:02;94619.28;;;4.39;77.41
9855;BME280;4966;48.112;9.282;2022-12-07T01:28:27;94614.69;;;4.40;77.78
9855;BME280;4966;48.112;9.282;2022-12-07T01:31:04;94618.78;;;4.51;77.53
9855;BME280;4966;48.112;9.282;2022-12-07T01:33:32;94613.91;;;4.39;77.72
9855;BME280;4966;48.112;9.282;2022-12-07T01:36:12;94614.19;;;4.52;77.71
9855;BME280;4966;48.112;9.282;2022-12-07T01:38:38;94620.81;;;4.45;77.99
9855;BME280;4966;48.112;9.282;2022-12-07T01:41:04;94615.50;;;4.54;77.58
9855;BME280;4966;48.112;9.282;2022-12-07T01:43:32;94616.09;;;4.51;76.59
9855;BME280;4966;48.112;9.282;2022-12-07T01:45:58;94616.00;;;4.42;76.92
9855;BME280;4966;48.112;9.282;2022-12-07T01:48:42;94610.91;;;4.55;76.35
9855;BME280;4966;48.112;9.282;2022-12-07T01:51:10;94608.72;;;4.43;76.93
9855;BME280;4966;48.112;9.282;2022-12-07T01:53:40;94616.41;;;4.36;77.92
9855;BME280;4966;48.112;9.282;2022-12-07T01:56:10;94615.63;;;4.21;78.72
9855;BME280;4966;48.112;9.282;2022-12-07T01:58:36;94614.41;;;4.28;78.89
9855;BME280;4966;48.112;9.282;2022-12-07T02:01:02;94602.63;;;4.37;78.53
9855;BME280;4966;48.112;9.282;2022-12-07T02:03:36;94612.22;;;4.43;78.31
9855;BME280;4966;48.112;9.282;2022-12-07T02:06:04;94612.81;;;4.40;78.55
9855;BME280;4966;48.112;9.282;2022-12-07T02:08:30;94620.41;;;4.24;79.09
9855;BME280;4966;48.112;9.282;2022-12-07T02:10:55;94613.00;;;4.30;79.21
9855;BME280;4966;48.112;9.282;2022-12-07T02:13:23;94614.50;;;4.22;79.38
9855;BME280;4966;48.112;9.282;2022-12-07T02:21:29;94614.22;;;4.24;79.38
9855;BME280;4966;48.112;9.282;2022-12-07T02:29:44;94612.94;;;4.21;79.72
9855;BME280;4966;48.112;9.282;2022-12-07T02:35:53;94609.22;;;4.17;79.95
9855;BME280;4966;48.112;9.282;2022-12-07T02:40:31;94596.66;;;3.99;81.08
9855;BME280;4966;48.112;9.282;2022-12-07T02:43:08;94602.94;;;4.08;80.60
9855;BME280;4966;48.112;9.282;2022-12-07T02:45:38;94600.44;;;4.12;80.92
9855;BME280;4966;48.112;9.282;2022-12-07T02:48:07;94598.53;;;3.84;82.17
9855;BME280;4966;48.112;9.282;2022-12-07T02:50:34;94613.91;;;3.98;81.50
9855;BME280;4966;48.112;9.282;2022-12-07T02:52:59;94606.25;;;4.05;81.42
9855;BME280;4966;48.112;9.282;2022-12-07T02:55:29;94605.75;;;4.17;81.16
9855;BME280;4966;48.112;9.282;2022-12-07T03:00:44;94602.53;;;4.42;79.44
9855;BME280;4966;48.112;9.282;2022-12-07T03:03:13;94597.63;;;4.58;78.54
9855;BME280;4966;48.112;9.282;2022-12-07T03:14:28;94618.22;;;4.26;80.33
9855;BME280;4966;48.112;9.282;2022-12-07T03:17:03;94619.78;;;4.14;80.34
9855;BME280;4966;48.112;9.282;2022-12-07T03:19:33;94605.03;;;4.11;80.74
9855;BME280;4966;48.112;9.282;2022-12-07T03:22:08;94606.81;;;4.16;80.71
9855;BME280;4966;48.112;9.282;2022-12-07T03:24:47;94608.84;;;4.10;80.85
9855;BME280;4966;48.112;9.282;2022-12-07T03:27:24;94604.94;;;4.02;81.25
9855;BME280;4966;48.112;9.282;2022-12-07T03:29:54;94599.56;;;4.02;81.23
9855;BME280;4966;48.112;9.282;2022-12-07T03:32:31;94609.72;;;4.05;81.11
9855;BME280;4966;48.112;9.282;2022-12-07T03:35:07;94595.34;;;3.96;81.38
9855;BME280;4966;48.112;9.282;2022-12-07T03:37:46;94596.47;;;3.95;81.56
9855;BME280;4966;48.112;9.282;2022-12-07T03:40:22;94596.94;;;3.97;81.72
9855;BME280;4966;48.112;9.282;2022-12-07T03:42:49;94593.78;;;3.95;81.45
9855;BME280;4966;48.112;9.282;2022-12-07T03:45:16;94591.66;;;3.92;81.62
9855;BME280;4966;48.112;9.282;2022-12-07T03:50:28;94597.44;;;3.99;81.13
9855;BME280;4966;48.112;9.282;2022-12-07T03:52:59;94592.25;;;3.89;81.74
9855;BME280;4966;48.112;9.282;2022-12-07T03:55:33;94601.03;;;3.95;81.30
9855;BME280;4966;48.112;9.282;2022-12-07T03:58:03;94594.84;;;3.94;81.50
9855;BME280;4966;48.112;9.282;2022-12-07T04:00:30;94598.66;;;3.93;81.72
9855;BME280;4966;48.112;9.282;2022-12-07T04:02:56;94597.28;;;4.10;80.97
9855;BME280;4966;48.112;9.282;2022-12-07T04:05:21;94606.41;;;3.95;81.39
9855;BME280;4966;48.112;9.282;2022-12-07T04:07:47;94605.13;;;3.92;81.78
9855;BME280;4966;48.112;9.282;2022-12-07T04:10:13;94596.75;;;3.94;82.11
9855;BME280;4966;48.112;9.282;2022-12-07T04:12:39;94601.84;;;4.09;81.52
9855;BME280;4966;48.112;9.282;2022-12-07T04:15:04;94596.06;;;4.16;80.89
9855;BME280;4966;48.112;9.282;2022-12-07T04:17:30;94601.75;;;4.28;80.23
9855;BME280;4966;48.112;9.282;2022-12-07T04:19:55;94596.84;;;4.30;80.68
9855;BME280;4966;48.112;9.282;2022-12-07T04:22:21;94591.97;;;4.18;80.57
9855;BME280;4966;48.112;9.282;2022-12-07T04:24:46;94583.81;;;4.10;81.11
9855;BME280;4966;48.112;9.282;2022-12-07T04:27:12;94587.97;;;4.16;81.31
9855;BME280;4966;48.112;9.282;2022-12-07T04:29:37;94586.19;;;4.25;80.46
9855;BME280;4966;48.112;9.282;2022-12-07T04:32:03;94584.69;;;4.33;79.46
9855;BME280;4966;48.112;9.282;2022-12-07T04:34:28;94593.97;;;4.13;79.94
9855;BME280;4966;48.112;9.282;2022-12-07T04:36:53;94592.06;;;3.99;81.10
9855;BME280;4966;48.112;9.282;2022-12-07T04:39:28;94583.38;;;4.16;80.33
9855;BME280;4966;48.112;9.282;2022-12-07T04:41:53;94573.03;;;3.96;80.81
9855;BME280;4966;48.112;9.282;2022-12-07T04:44:20;94582.31;;;4.17;80.37
9855;BME280;4966;48.112;9.282;2022-12-07T04:46:46;94574.13;;;4.22;80.39
9855;BME280;4966;48.112;9.282;2022-12-07T04:49:12;94582.69;;;4.11;80.58
9855;BME280;4966;48.112;9.282;2022-12-07T04:51:38;94578.53;;;3.91;81.58
9855;BME280;4966;48.112;9.282;2022-12-07T04:54:03;94588.78;;;3.89;81.66
9855;BME280;4966;48.112;9.282;2022-12-07T04:56:28;94577.41;;;3.92;81.77
9855;BME280;4966;48.112;9.282;2022-12-07T04:58:54;94580.50;;;3.99;81.63
9855;BME280;4966;48.112;9.282;2022-12-07T05:01:20;94582.50;;;3.93;81.86
9855;BME280;4966;48.112;9.282;2022-12-07T05:03:46;94582.19;;;3.95;81.69
9855;BME280;4966;48.112;9.282;2022-12-07T05:06:12;94582.94;;;3.54;84.12
9855;BME280;4966;48.112;9.282;2022-12-07T05:08:38;94584.97;;;3.62;83.84
9855;BME280;4966;48.112;9.282;2022-12-07T05:11:04;94587.16;;;3.88;82.42
9855;BME280;4966;48.112;9.282;2022-12-07T05:13:30;94588.25;;;3.73;82.70
9855;BME280;4966;48.112;9.282;2022-12-07T05:15:55;94591.53;;;3.70;83.14
9855;BME280;4966;48.112;9.282;2022-12-07T05:18:21;94593.03;;;3.62;83.47
9855;BME280;4966;48.112;9.282;2022-12-07T05:20:46;94577.03;;;3.52;83.53
9855;BME280;4966;48.112;9.282;2022-12-07T05:23:12;94588.84;;;3.70;83.05
9855;BME280;4966;48.112;9.282;2022-12-07T05:25:38;94593.31;;;3.60;83.81
9855;BME280;4966;48.112;9.282;2022-12-07T05:28:04;94591.91;;;3.63;83.30
9855;BME280;4966;48.112;9.282;2022-12-07T05:30:30;94588.72;;;3.61;83.50
9855;BME280;4966;48.112;9.282;2022-12-07T05:32:56;94588.63;;;3.66;83.04
9855;BME280;4966;48.112;9.282;2022-12-07T05:35:21;94591.53;;;3.70;83.30
9855;BME280;4966;48.112;9.282;2022-12-07T05:37:47;94587.16;;;3.88;82.32
9855;BME280;4966;48.112;9.282;2022-12-07T05:40:13;94598.13;;;3.77;82.71
9855;BME280;4966;48.112;9.282;2022-12-07T05:42:39;94600.72;;;3.82;82.57
9855;BME280;4966;48.112;9.282;2022-12-07T05:45:05;94600.53;;;3.79;82.96
9855;BME280;4966;48.112;9.282;2022-12-07T05:47:31;94600.44;;;4.12;80.95
9855;BME280;4966;48.112;9.282;2022-12-07T05:49:56;94594.47;;;4.15;80.21
9855;BME280;4966;48.112;9.282;2022-12-07T05:52:21;94592.19;;;4.22;80.22
9855;BME280;4966;48.112;9.282;2022-12-07T05:54:47;94603.06;;;4.17;79.86
9855;BME280;4966;48.112;9.282;2022-12-07T05:57:12;94605.63;;;4.08;80.48
9855;BME280;4966;48.112;9.282;2022-12-07T05:59:37;94603.06;;;4.17;80.76
9855;BME280;4966;48.112;9.282;2022-12-07T06:02:04;94601.75;;;4.28;80.23
9855;BME280;4966;48.112;9.282;2022-12-07T06:04:37;94606.44;;;4.22;79.73
9855;BME280;4966;48.112;9.282;2022-12-07T06:07:04;94600.84;;;4.33;79.61
9855;BME280;4966;48.112;9.282;2022-12-07T06:09:30;94603.75;;;4.22;79.99
9855;BME280;4966;48.112;9.282;2022-12-07T06:11:58;94595.25;;;4.01;80.53
9855;BME280;4966;48.112;9.282;2022-12-07T06:14:42;94591.16;;;3.90;81.70
9855;BME280;4966;48.112;9.282;2022-12-07T06:17:09;94609.59;;;3.83;81.80
9855;BME280;4966;48.112;9.282;2022-12-07T06:19:34;94601.88;;;3.62;83.21
9855;BME280;4966;48.112;9.282;2022-12-07T06:22:01;94606.63;;;3.52;83.33
9855;BME280;4966;48.112;9.282;2022-12-07T06:24:26;94601.19;;;3.57;83.27
9855;BME280;4966;48.112;9.282;2022-12-07T06:26:52;94608.25;;;3.53;82.77
9855;BME280;4966;48.112;9.282;2022-12-07T06:29:17;94603.78;;;3.62;82.86
9855;BME280;4966;48.112;9.282;2022-12-07T06:31:43;94609.03;;;3.53;83.05
9855;BME280;4966;48.112;9.282;2022-12-07T06:34:15;94607.13;;;3.54;83.04
9855;BME280;4966;48.112;9.282;2022-12-07T06:36:41;94609.72;;;3.45;83.36
9855;BME280;4966;48.112;9.282;2022-12-07T06:39:07;94614.44;;;3.34;84.08
9855;BME280;4966;48.112;9.282;2022-12-07T06:41:34;94610.25;;;3.28;84.71
9855;BME280;4966;48.112;9.282;2022-12-07T06:44:00;94606.63;;;3.52;83.10
9855;BME280;4966;48.112;9.282;2022-12-07T06:46:25;94611.91;;;3.43;83.48
9855;BME280;4966;48.112;9.282;2022-12-07T06:48:51;94618.44;;;3.37;84.04
9855;BME280;4966;48.112;9.282;2022-12-07T06:51:16;94619.47;;;3.41;83.63
9855;BME280;4966;48.112;9.282;2022-12-07T06:53:41;94612.59;;;3.49;83.52
9855;BME280;4966;48.112;9.282;2022-12-07T06:56:07;94629.84;;;3.48;83.46
9855;BME280;4966;48.112;9.282;2022-12-07T06:58:33;94616.97;;;3.45;83.81
9855;BME280;4966;48.112;9.282;2022-12-07T07:00:58;94619.94;;;3.62;83.50
9855;BME280;4966;48.112;9.282;2022-12-07T07:03:24;94620.50;;;3.59;83.33
9855;BME280;4966;48.112;9.282;2022-12-07T07:05:49;94624.56;;;3.56;83.15
9855;BME280;4966;48.112;9.282;2022-12-07T07:08:14;94626.97;;;3.25;83.89
9855;BME280;4966;48.112;9.282;2022-12-07T07:10:40;94617.50;;;3.28;84.50
9855;BME280;4966;48.112;9.282;2022-12-07T07:13:06;94628.22;;;3.33;84.09
9855;BME280;4966;48.112;9.282;2022-12-07T07:15:32;94629.56;;;3.30;83.97
9855;BME280;4966;48.112;9.282;2022-12-07T07:17:58;94627.16;;;3.48;82.65
9855;BME280;4966;48.112;9.282;2022-12-07T07:20:24;94625.44;;;3.38;83.18
9855;BME280;4966;48.112;9.282;2022-12-07T07:22:50;94628.13;;;3.38;82.72
9855;BME280;4966;48.112;9.282;2022-12-07T07:25:15;94628.84;;;3.25;82.76
9855;BME280;4966;48.112;9.282;2022-12-07T07:27:41;94628.50;;;3.12;83.44
9855;BME280;4966;48.112;9.282;2022-12-07T07:30:07;94634.38;;;3.14;83.78
9855;BME280;4966;48.112;9.282;2022-12-07T07:32:33;94627.00;;;3.39;82.72
9855;BME280;4966;48.112;9.282;2022-12-07T07:34:58;94633.84;;;3.50;82.46
9855;BME280;4966;48.112;9.282;2022-12-07T07:37:25;94629.56;;;3.30;82.87
9855;BME280;4966;48.112;9.282;2022-12-07T07:39:50;94627.53;;;3.41;82.42
9855;BME280;4966;48.112;9.282;2022-12-07T07:42:16;94631.88;;;3.37;82.01
9855;BME280;4966;48.112;9.282;2022-12-07T07:44:41;94638.22;;;3.08;82.32
9855;BME280;4966;48.112;9.282;2022-12-07T07:47:06;94633.72;;;2.85;83.17
9855;BME280;4966;48.112;9.282;2022-12-07T07:49:32;94638.75;;;2.91;83.14
9855;BME280;4966;48.112;9.282;2022-12-07T07:51:57;94630.41;;;2.93;82.78
9855;BME280;4966;48.112;9.282;2022-12-07T07:54:22;94637.66;;;2.73;83.10
9855;BME280;4966;48.112;9.282;2022-12-07T07:56:48;94634.66;;;2.75;83.53
9855;BME280;4966;48.112;9.282;2022-12-07T07:59:15;94637.88;;;2.77;83.01
9855;BME280;4966;48.112;9.282;2022-12-07T08:01:40;94642.22;;;2.54;83.45
9855;BME280;4966;48.112;9.282;2022-12-07T08:04:05;94650.81;;;2.51;83.71
9855;BME280;4966;48.112;9.282;2022-12-07T08:06:31;94647.06;;;2.52;83.25
9855;BME280;4966;48.112;9.282;2022-12-07T08:08:56;94640.47;;;2.44;83.56
9855;BME280;4966;48.112;9.282;2022-12-07T08:11:23;94637.09;;;2.33;83.48
9855;BME280;4966;48.112;9.282;2022-12-07T08:13:48;94649.91;;;2.37;83.54
9855;BME280;4966;48.112;9.282;2022-12-07T08:16:14;94644.09;;;2.29;83.96
9855;BME280;4966;48.112;9.282;2022-12-07T08:18:41;94636.69;;;2.21;83.79
9855;BME280;4966;48.112;9.282;2022-12-07T08:21:08;94649.31;;;2.21;84.18
9855;BME280;4966;48.112;9.282;2022-12-07T08:23:34;94641.09;;;2.12;84.53
9855;BME280;4966;48.112;9.282;2022-12-07T08:26:04;94653.19;;;2.09;84.50
9855;BME280;4966;48.112;9.282;2022-12-07T08:28:30;94653.78;;;2.30;83.98
9855;BME280;4966;48.112;9.282;2022-12-07T08:31:03;94649.72;;;2.33;83.95
9855;BME280;4966;48.112;9.282;2022-12-07T08:33:29;94660.72;;;2.31;84.44
9855;BME280;4966;48.112;9.282;2022-12-07T08:36:03;94653.06;;;2.44;84.58
9855;BME280;4966;48.112;9.282;2022-12-07T08:38:29;94655.78;;;2.63;84.07
9855;BME280;4966;48.112;9.282;2022-12-07T08:40:58;94651.28;;;2.77;84.47
9855;BME280;4966;48.112;9.282;2022-12-07T08:43:23;94656.25;;;2.89;84.07
9855;BME280;4966;48.112;9.282;2022-12-07T08:48:23;94657.47;;;2.96;84.53
9855;BME280;4966;48.112;9.282;2022-12-07T08:50:50;94662.50;;;3.03;84.31
9855;BME280;4966;48.112;9.282;2022-12-07T08:53:16;94645.94;;;2.96;85.10
9855;BME280;4966;48.112;9.282;2022-12-07T08:55:44;94654.72;;;3.20;85.43
9855;BME280;4966;48.112;9.282;2022-12-07T08:58:09;94649.19;;;3.50;84.73
9855;BME280;4966;48.112;9.282;2022-12-07T09:00:35;94657.78;;;3.66;83.61
9855;BME280;4966;48.112;9.282;2022-12-07T09:03:00;94659.00;;;3.73;82.32
9855;BME280;4966;48.112;9.282;2022-12-07T09:05:25;94657.13;;;3.88;82.71
9855;BME280;4966;48.112;9.282;2022-12-07T09:07:54;94657.75;;;3.98;79.54
9855;BME280;4966;48.112;9.282;2022-12-07T09:10:21;94651.38;;;3.94;79.14
9855;BME280;4966;48.112;9.282;2022-12-07T09:12:46;94660.03;;;3.91;79.18
9855;BME280;4966;48.112;9.282;2022-12-07T09:15:11;94660.13;;;3.86;79.14
9855;BME280;4966;48.112;9.282;2022-12-07T09:17:37;94651.81;;;3.69;79.52
9855;BME280;4966;48.112;9.282;2022-12-07T09:20:04;94649.00;;;3.60;78.18
9855;BME280;4966;48.112;9.282;2022-12-07T09:22:31;94657.03;;;3.79;77.99
9855;BME280;4966;48.112;9.282;2022-12-07T09:24:58;94655.78;;;3.57;78.59
9855;BME280;4966;48.112;9.282;2022-12-07T09:27:23;94653.91;;;3.72;77.87
9855;BME280;4966;48.112;9.282;2022-12-07T09:29:49;94658.38;;;3.95;77.44
9855;BME280;4966;48.112;9.282;2022-12-07T09:32:14;94658.84;;;3.97;77.10
9855;BME280;4966;48.112;9.282;2022-12-07T09:34:39;94664.44;;;4.01;74.91
9855;BME280;4966;48.112;9.282;2022-12-07T09:37:05;94646.94;;;4.31;73.44
9855;BME280;4966;48.112;9.282;2022-12-07T09:39:31;94652.09;;;4.28;71.84
9855;BME280;4966;48.112;9.282;2022-12-07T09:41:58;94647.63;;;4.23;70.84
9855;BME280;4966;48.112;9.282;2022-12-07T09:44:25;94648.03;;;4.30;68.10
9855;BME280;4966;48.112;9.282;2022-12-07T09:46:52;94637.03;;;4.40;67.13
9855;BME280;4966;48.112;9.282;2022-12-07T09:49:20;94637.34;;;4.25;69.02
9855;BME280;4966;48.112;9.282;2022-12-07T09:51:55;94635.94;;;4.28;70.43
9855;BME280;4966;48.112;9.282;2022-12-07T09:54:24;94642.94;;;4.42;69.67
9855;BME280;4966;48.112;9.282;2022-12-07T09:56:49;94633.41;;;4.86;68.68
9855;BME280;4966;48.112;9.282;2022-12-07T09:59:18;94632.53;;;4.77;69.17
9855;BME280;4966;48.112;9.282;2022-12-07T10:01:46;94626.50;;;4.94;66.76
9855;BME280;4966;48.112;9.282;2022-12-07T10:04:19;94637.13;;;4.77;66.27
9855;BME280;4966;48.112;9.282;2022-12-07T10:06:46;94622.78;;;4.67;65.83
9855;BME280;4966;48.112;9.282;2022-12-07T10:09:14;94615.78;;;4.66;65.43
9855;BME280;4966;48.112;9.282;2022-12-07T10:14:33;94618.28;;;4.77;66.37
9855;BME280;4966;48.112;9.282;2022-12-07T10:16:59;94622.50;;;4.55;65.55
9855;BME280;4966;48.112;9.282;2022-12-07T10:19:31;94612.22;;;4.43;65.29
9855;BME280;4966;48.112;9.282;2022-12-07T10:22:02;94614.00;;;4.48;65.92
9855;BME280;4966;48.112;9.282;2022-12-07T10:24:28;94604.59;;;4.73;65.91
9855;BME280;4966;48.112;9.282;2022-12-07T10:26:54;94614.56;;;4.86;65.28
9855;BME280;4966;48.112;9.282;2022-12-07T10:29:29;94613.28;;;4.56;66.26
9855;BME280;4966;48.112;9.282;2022-12-07T10:32:02;94613.50;;;4.60;66.59
9855;BME280;4966;48.112;9.282;2022-12-07T10:34:34;94600.31;;;4.58;66.43
9855;BME280;4966;48.112;9.282;2022-12-07T10:37:26;94599.25;;;4.45;67.61
9855;BME280;4966;48.112;9.282;2022-12-07T10:39:56;94597.56;;;4.36;68.52
9855;BME280;4966;48.112;9.282;2022-12-07T10:42:23;94598.34;;;4.36;68.94
9855;BME280;4966;48.112;9.282;2022-12-07T10:44:50;94588.66;;;4.49;68.49
9855;BME280;4966;48.112;9.282;2022-12-07T10:47:40;94590.88;;;4.33;69.01
9855;BME280;4966;48.112;9.282;2022-12-07T10:53:08;94576.25;;;4.62;67.63
9855;BME280;4966;48.112;9.282;2022-12-07T10:56:05;94572.47;;;4.77;66.80
9855;BME280;4966;48.112;9.282;2022-12-07T11:01:25;94578.41;;;4.87;66.32
9855;BME280;4966;48.112;9.282;2022-12-07T11:07:17;94575.13;;;5.36;63.53
9855;BME280;4966;48.112;9.282;2022-12-07T11:15:56;94571.81;;;4.94;60.79
9855;BME280;4966;48.112;9.282;2022-12-07T11:21:39;94561.72;;;4.63;63.49
9855;BME280;4966;48.112;9.282;2022-12-07T11:24:19;94564.00;;;4.56;64.00
9855;BME280;4966;48.112;9.282;2022-12-07T11:27:06;94549.00;;;5.00;63.32
9855;BME280;4966;48.112;9.282;2022-12-07T11:37:56;94546.06;;;4.87;63.46
9855;BME280;4966;48.112;9.282;2022-12-07T11:40:29;94540.38;;;5.11;63.21
9855;BME280;4966;48.112;9.282;2022-12-07T11:43:02;94534.50;;;5.32;63.11
9855;BME280;4966;48.112;9.282;2022-12-07T11:45:34;94535.59;;;5.31;62.73
9855;BME280;4966;48.112;9.282;2022-12-07T11:50:50;94533.44;;;5.42;63.35
9855;BME280;4966;48.112;9.282;2022-12-07T11:55:49;94532.03;;;5.44;63.11
9855;BME280;4966;48.112;9.282;2022-12-07T12:03:44;94517.91;;;6.18;60.85
9855;BME280;4966;48.112;9.282;2022-12-07T12:06:10;94506.94;;;6.06;61.42
9855;BME280;4966;48.112;9.282;2022-12-07T12:08:40;94510.72;;;5.96;61.85
9855;BME280;4966;48.112;9.282;2022-12-07T12:14:12;94507.53;;;6.03;61.52
9855;BME280;4966;48.112;9.282;2022-12-07T12:16:57;94500.16;;;6.35;61.25
9855;BME280;4966;48.112;9.282;2022-12-07T12:22:06;94499.88;;;6.71;61.37
9855;BME280;4966;48.112;9.282;2022-12-07T12:24:37;94487.47;;;6.62;59.98
9855;BME280;4966;48.112;9.282;2022-12-07T12:27:08;94489.03;;;6.28;61.04
9855;BME280;4966;48.112;9.282;2022-12-07T12:29:40;94493.19;;;6.69;59.50
9855;BME280;4966;48.112;9.282;2022-12-07T12:37:45;94478.88;;;6.94;59.00
9855;BME280;4966;48.112;9.282;2022-12-07T12:42:48;94477.78;;;6.69;60.03
9855;BME280;4966;48.112;9.282;2022-12-07T12:45:26;94473.66;;;6.80;59.27
9855;BME280;4966;48.112;9.282;2022-12-07T12:50:33;94469.13;;;6.06;61.72
9855;BME280;4966;48.112;9.282;2022-12-07T13:00:46;94468.03;;;6.25;60.83
9855;BME280;4966;48.112;9.282;2022-12-07T13:03:26;94469.47;;;6.31;61.20
9855;BME280;4966;48.112;9.282;2022-12-07T13:08:40;94470.16;;;6.54;60.23
9855;BME280;4966;48.112;9.282;2022-12-07T13:11:33;94462.50;;;6.65;59.75
9855;BME280;4966;48.112;9.282;2022-12-07T13:17:11;94456.22;;;7.34;58.54
9855;BME280;4966;48.112;9.282;2022-12-07T13:22:39;94449.81;;;8.15;56.66
9855;BME280;4966;48.112;9.282;2022-12-07T13:25:12;94452.00;;;8.51;54.07
9855;BME280;4966;48.112;9.282;2022-12-07T13:27:48;94449.94;;;8.90;54.68
9855;BME280;4966;48.112;9.282;2022-12-07T13:30:21;94448.25;;;8.65;54.55
9855;BME280;4966;48.112;9.282;2022-12-07T13:32:54;94446.56;;;8.51;54.85
9855;BME280;4966;48.112;9.282;2022-12-07T13:35:37;94447.16;;;8.99;52.90
9855;BME280;4966;48.112;9.282;2022-12-07T13:38:05;94442.19;;;9.34;52.74
9855;BME280;4966;48.112;9.282;2022-12-07T13:40:40;94443.94;;;9.18;53.38
9855;BME280;4966;48.112;9.282;2022-12-07T13:43:14;94439.41;;;9.10;51.91
9855;BME280;4966;48.112;9.282;2022-12-07T13:45:41;94439.34;;;9.43;52.10
9855;BME280;4966;48.112;9.282;2022-12-07T13:51:04;94433.31;;;9.25;53.22
9855;BME280;4966;48.112;9.282;2022-12-07T13:53:29;94425.56;;;8.69;54.24
9855;BME280;4966;48.112;9.282;2022-12-07T13:55:59;94428.63;;;9.47;52.23
9855;BME280;4966;48.112;9.282;2022-12-07T13:58:30;94429.38;;;8.68;55.82
9855;BME280;4966;48.112;9.282;2022-12-07T14:00:57;94426.84;;;9.05;54.38
9855;BME280;4966;48.112;9.282;2022-12-07T14:03:34;94428.56;;;8.89;54.96
9855;BME280;4966;48.112;9.282;2022-12-07T14:06:27;94421.66;;;8.58;56.34
9855;BME280;4966;48.112;9.282;2022-12-07T14:09:19;94420.66;;;8.63;55.16
9855;BME280;4966;48.112;9.282;2022-12-07T14:11:46;94419.63;;;8.25;56.45
9855;BME280;4966;48.112;9.282;2022-12-07T14:14:16;94424.91;;;8.22;56.33
9855;BME280;4966;48.112;9.282;2022-12-07T14:16:43;94425.09;;;8.46;55.99
9855;BME280;4966;48.112;9.282;2022-12-07T14:19:46;94421.22;;;7.97;57.25
9855;BME280;4966;48.112;9.282;2022-12-07T14:24:45;94427.31;;;7.94;59.59
9855;BME280;4966;48.112;9.282;2022-12-07T14:27:18;94431.75;;;7.21;60.91
9855;BME280;4966;48.112;9.282;2022-12-07T14:29:45;94427.69;;;6.28;63.91
9855;BME280;4966;48.112;9.282;2022-12-07T14:32:27;94423.53;;;6.13;65.35
9855;BME280;4966;48.112;9.282;2022-12-07T14:35:09;94436.25;;;5.64;66.58
9855;BME280;4966;48.112;9.282;2022-12-07T14:37:36;94432.34;;;5.39;67.72
9855;BME280;4966;48.112;9.282;2022-12-07T14:40:02;94429.78;;;5.34;68.94
9855;BME280;4966;48.112;9.282;2022-12-07T14:42:29;94423.75;;;4.75;70.49
9855;BME280;4966;48.112;9.282;2022-12-07T14:44:56;94434.50;;;4.97;70.51
9855;BME280;4966;48.112;9.282;2022-12-07T14:47:22;94434.47;;;4.88;71.46
9855;BME280;4966;48.112;9.282;2022-12-07T14:49:47;94426.25;;;4.94;71.73
9855;BME280;4966;48.112;9.282;2022-12-07T14:52:30;94427.22;;;4.98;71.22
9855;BME280;4966;48.112;9.282;2022-12-07T14:54:55;94426.06;;;5.21;70.78
9855;BME280;4966;48.112;9.282;2022-12-07T14:57:21;94423.69;;;5.20;70.92
9855;BME280;4966;48.112;9.282;2022-12-07T14:59:46;94428.19;;;5.02;70.90
9855;BME280;4966;48.112;9.282;2022-12-07T15:02:13;94432.31;;;5.30;69.86
9855;BME280;4966;48.112;9.282;2022-12-07T15:04:39;94432.44;;;5.25;70.37
9855;BME280;4966;48.112;9.282;2022-12-07T15:07:09;94435.63;;;5.27;70.00
9855;BME280;4966;48.112;9.282;2022-12-07T15:09:35;94433.72;;;5.28;69.87
9855;BME280;4966;48.112;9.282;2022-12-07T15:12:01;94426.75;;;5.36;69.79
9855;BME280;4966;48.112;9.282;2022-12-07T15:14:26;94429.13;;;4.97;71.20
9855;BME280;4966;48.112;9.282;2022-12-07T15:16:52;94432.91;;;4.96;69.77
9855;BME280;4966;48.112;9.282;2022-12-07T15:19:24;94433.78;;;5.05;69.09
9855;BME280;4966;48.112;9.282;2022-12-07T15:21:52;94429.16;;;5.06;69.77
9855;BME280;4966;48.112;9.282;2022-12-07T15:24:17;94430.31;;;5.14;69.13
9855;BME280;4966;48.112;9.282;2022-12-07T15:26:43;94434.34;;;4.71;69.71
9855;BME280;4966;48.112;9.282;2022-12-07T15:29:10;94441.00;;;4.74;69.74
9855;BME280;4966;48.112;9.282;2022-12-07T15:31:36;94440.03;;;4.69;71.29
9855;BME280;4966;48.112;9.282;2022-12-07T15:34:02;94442.78;;;5.01;70.25